Lake Edwards, Minnesota
Current Conditions -  °F | °C
As of 12:53 AM on Friday 31 Oct 2014 (Local Time) from KBRD Reporting Station
Few Clouds Few Clouds  
Wind Chill: 17°   Ceiling: Unl
Heat Index: 28°   Visibility: 10mi
Dew Point: 16°   Wind: 15mph
Humidity: 61%   Direction: 10°N
Pressure: 30.45"   Gusts: NA
Location:  46.5121°N, 94.2802°W
Report Text: KBRD 310553Z AUTO 01013KT 10SM FEW037 M02/M09 A3045 RMK AO2 SLP328 T10221089 10017 21022 400441022 51023
Loading
Personal Weather Stations






























Interactive Weather Map
Tropical Storm Tracking
New forecast layout! Learn more

10-Day Weather Forecast

Advertisements
Track Severe Weather on mobile